createdAt,value
2022-10-22T00:00:01.572Z,32.75
2022-10-22T00:02:28.033Z,31.02
2022-10-22T00:04:56.734Z,32.35
2022-10-22T00:07:23.391Z,32.92
2022-10-22T00:09:49.937Z,31.83
2022-10-22T00:12:16.628Z,35.78
2022-10-22T00:14:43.403Z,32.97
2022-10-22T00:17:11.469Z,32.20
2022-10-22T00:19:38.624Z,30.58
2022-10-22T00:22:05.710Z,31.48
2022-10-22T00:24:33.449Z,31.80
2022-10-22T00:26:59.970Z,32.00
2022-10-22T00:29:26.475Z,34.10
2022-10-22T00:31:53.109Z,31.17
2022-10-22T00:34:21.262Z,32.33
2022-10-22T00:36:48.478Z,31.13
2022-10-22T00:39:17.030Z,31.98
2022-10-22T00:41:45.438Z,30.90
2022-10-22T00:44:49.279Z,32.08
2022-10-22T00:47:17.559Z,29.75
2022-10-22T00:49:46.536Z,30.50
2022-10-22T00:52:13.622Z,30.60
2022-10-22T00:54:41.237Z,31.55
2022-10-22T00:57:07.740Z,30.73
2022-10-22T00:59:34.450Z,31.40
2022-10-22T01:02:01.052Z,30.45
2022-10-22T01:04:27.371Z,29.05
2022-10-22T01:06:53.915Z,30.52
2022-10-22T01:09:23.325Z,30.15
2022-10-22T01:11:53.478Z,28.48
2022-10-22T01:14:28.771Z,26.83
2022-10-22T01:17:08.608Z,29.98
2022-10-22T01:19:43.933Z,28.85
2022-10-22T01:22:52.254Z,29.45
2022-10-22T01:25:35.274Z,27.92
2022-10-22T01:28:31.667Z,27.73
2022-10-22T01:31:01.276Z,29.63
2022-10-22T01:33:29.298Z,28.55
2022-10-22T01:35:57.386Z,30.70
2022-10-22T01:38:25.743Z,27.20
2022-10-22T01:40:52.235Z,28.70
2022-10-22T01:43:18.996Z,29.55
2022-10-22T01:45:52.276Z,31.60
2022-10-22T01:48:40.476Z,29.25
2022-10-22T01:51:27.993Z,30.50
2022-10-22T01:54:03.402Z,30.83
2022-10-22T01:57:07.128Z,27.63
2022-10-22T02:00:07.432Z,28.23
2022-10-22T02:02:42.243Z,29.55
2022-10-22T02:05:14.615Z,27.52
2022-10-22T02:07:49.118Z,29.00
2022-10-22T02:10:18.720Z,28.60
2022-10-22T02:12:50.236Z,27.67
2022-10-22T02:15:19.345Z,29.10
2022-10-22T02:17:47.116Z,28.80
2022-10-22T02:20:19.326Z,28.05
2022-10-22T02:22:46.850Z,30.25
2022-10-22T02:25:14.375Z,30.80
2022-10-22T02:27:51.823Z,28.98
2022-10-22T02:30:22.346Z,29.15
2022-10-22T02:32:53.835Z,29.73
2022-10-22T02:35:23.152Z,30.08
2022-10-22T02:37:51.220Z,28.20
2022-10-22T02:40:18.471Z,30.00
2022-10-22T02:42:48.235Z,32.55
2022-10-22T02:45:15.163Z,33.20
2022-10-22T02:47:41.515Z,30.15
2022-10-22T02:50:10.289Z,30.02
2022-10-22T02:52:37.324Z,31.10
2022-10-22T02:55:05.011Z,31.77
2022-10-22T02:57:31.416Z,30.80
2022-10-22T02:59:57.822Z,33.25
2022-10-22T03:02:24.520Z,31.83
2022-10-22T03:04:50.834Z,30.80
2022-10-22T03:07:17.227Z,32.80
2022-10-22T03:09:43.564Z,31.52
2022-10-22T03:12:09.876Z,30.80
2022-10-22T03:14:36.165Z,30.80
2022-10-22T03:17:02.634Z,30.98
2022-10-22T03:19:28.937Z,30.73
2022-10-22T03:22:08.487Z,31.88
2022-10-22T03:24:39.780Z,31.08
2022-10-22T03:27:06.406Z,31.15
2022-10-22T03:29:35.983Z,32.65
2022-10-22T03:32:02.295Z,32.45
2022-10-22T03:34:28.690Z,31.05
2022-10-22T03:36:57.396Z,30.58
2022-10-22T03:39:23.823Z,31.77
2022-10-22T03:41:51.989Z,33.17
2022-10-22T03:44:18.758Z,32.80
2022-10-22T03:46:45.317Z,32.85
2022-10-22T03:49:11.878Z,32.67
2022-10-22T03:51:38.365Z,33.03
2022-10-22T03:54:05.102Z,32.35
2022-10-22T03:56:31.760Z,30.33
2022-10-22T03:58:59.323Z,33.60
2022-10-22T04:01:26.669Z,34.70
2022-10-22T04:03:53.497Z,35.28
2022-10-22T04:06:19.837Z,35.05
2022-10-22T04:08:46.323Z,37.88
2022-10-22T04:11:14.051Z,34.83
2022-10-22T04:13:40.940Z,37.42
2022-10-22T04:16:16.150Z,37.63
2022-10-22T04:18:43.647Z,37.00
2022-10-22T04:21:12.566Z,37.80
2022-10-22T04:23:39.223Z,37.95
2022-10-22T04:26:07.998Z,36.95
2022-10-22T04:28:35.140Z,40.72
2022-10-22T04:31:07.606Z,37.72
2022-10-22T04:33:33.912Z,42.17
2022-10-22T04:36:00.229Z,37.63
2022-10-22T04:38:26.523Z,38.20
2022-10-22T04:40:52.838Z,38.30
2022-10-22T04:43:19.224Z,35.20
2022-10-22T04:45:45.542Z,35.72
2022-10-22T04:48:11.925Z,36.97
2022-10-22T04:50:38.318Z,37.53
2022-10-22T04:53:04.756Z,34.50
2022-10-22T04:58:02.346Z,37.10
2022-10-22T05:00:28.671Z,33.58
2022-10-22T05:02:55.067Z,36.65
2022-10-22T05:05:21.402Z,38.08
2022-10-22T05:07:47.764Z,39.15
2022-10-22T05:10:14.138Z,35.85
2022-10-22T05:12:40.527Z,36.38
2022-10-22T05:15:07.575Z,38.40
2022-10-22T05:17:37.533Z,38.10
2022-10-22T05:20:05.315Z,41.85
2022-10-22T05:22:33.155Z,47.92
2022-10-22T05:24:59.455Z,47.60
2022-10-22T05:27:25.965Z,53.20
2022-10-22T05:29:52.693Z,51.65
2022-10-22T05:32:19.004Z,50.22
2022-10-22T05:34:45.341Z,48.70
2022-10-22T05:37:11.653Z,45.72
2022-10-22T05:39:40.188Z,47.22
2022-10-22T05:42:06.544Z,48.33
2022-10-22T05:44:32.989Z,47.42
2022-10-22T05:46:59.294Z,49.33
2022-10-22T05:49:25.593Z,47.67
2022-10-22T05:51:51.928Z,46.08
2022-10-22T05:54:20.738Z,46.72
2022-10-22T05:56:47.118Z,49.25
2022-10-22T05:59:13.508Z,44.90
2022-10-22T06:01:40.979Z,45.58
2022-10-22T06:04:10.555Z,46.05
2022-10-22T06:06:36.829Z,43.28
2022-10-22T06:09:23.770Z,38.97
2022-10-22T06:11:50.919Z,40.60
2022-10-22T06:14:18.521Z,41.70
2022-10-22T06:16:44.971Z,41.63
2022-10-22T06:19:12.945Z,42.10
2022-10-22T06:21:39.527Z,41.08
2022-10-22T06:24:06.310Z,41.33
2022-10-22T06:26:32.670Z,41.63
2022-10-22T06:28:59.446Z,38.33
2022-10-22T06:31:26.769Z,37.30
2022-10-22T06:33:53.335Z,42.20
2022-10-22T06:36:22.562Z,38.28
2022-10-22T06:38:53.380Z,40.55
2022-10-22T06:41:21.376Z,41.88
2022-10-22T06:43:49.992Z,38.70
2022-10-22T06:46:20.256Z,39.33
2022-10-22T06:48:59.271Z,40.30
2022-10-22T06:51:26.643Z,35.65
2022-10-22T06:53:53.797Z,37.42
2022-10-22T06:56:22.535Z,39.75
2022-10-22T06:58:49.955Z,37.90
2022-10-22T07:01:18.685Z,37.55
2022-10-22T07:03:45.766Z,36.78
2022-10-22T07:06:14.250Z,37.58
2022-10-22T07:08:41.641Z,36.22
2022-10-22T07:11:13.735Z,36.10
2022-10-22T07:13:40.328Z,35.17
2022-10-22T07:16:08.173Z,34.55
2022-10-22T07:18:35.705Z,34.08
2022-10-22T07:21:03.195Z,34.83
2022-10-22T07:23:30.526Z,33.85
2022-10-22T07:28:29.098Z,33.30
2022-10-22T07:30:55.449Z,31.25
2022-10-22T07:33:21.798Z,30.02
2022-10-22T07:35:48.202Z,33.13
2022-10-22T07:38:14.519Z,32.40
2022-10-22T07:40:40.829Z,31.40
2022-10-22T07:43:07.216Z,34.83
2022-10-22T07:45:33.777Z,32.35
2022-10-22T07:48:00.642Z,34.78
2022-10-22T07:50:26.981Z,28.65
2022-10-22T07:52:54.848Z,31.30
2022-10-22T07:55:23.737Z,33.85
2022-10-22T07:57:50.045Z,32.08
2022-10-22T08:00:17.837Z,33.13
2022-10-22T08:02:46.252Z,33.63
2022-10-22T08:05:13.375Z,34.15
2022-10-22T08:07:40.823Z,34.55
2022-10-22T08:10:08.077Z,32.85
2022-10-22T08:12:34.435Z,33.60
2022-10-22T08:15:00.861Z,34.80
2022-10-22T08:17:27.779Z,33.03
2022-10-22T08:19:54.241Z,32.85
2022-10-22T08:22:20.606Z,35.45
2022-10-22T08:24:46.903Z,33.33
2022-10-22T08:27:13.329Z,30.65
2022-10-22T08:29:40.201Z,29.95
2022-10-22T08:32:06.810Z,30.90
2022-10-22T08:34:33.430Z,28.02
2022-10-22T08:37:00.105Z,30.77
2022-10-22T08:39:26.639Z,26.90
2022-10-22T08:42:08.375Z,27.38
2022-10-22T08:44:48.259Z,30.48
2022-10-22T08:47:34.722Z,33.83
2022-10-22T08:50:02.305Z,30.45
2022-10-22T08:52:31.023Z,31.83
2022-10-22T08:55:00.112Z,31.15
2022-10-22T08:58:03.702Z,31.42
2022-10-22T09:00:46.052Z,29.73
2022-10-22T09:03:32.921Z,32.38
2022-10-22T09:06:05.938Z,32.25
2022-10-22T09:08:32.754Z,29.55
2022-10-22T09:11:06.901Z,31.10
2022-10-22T09:13:33.473Z,30.23
2022-10-22T09:16:11.157Z,30.73
2022-10-22T09:19:14.798Z,27.92
2022-10-22T09:21:50.806Z,31.38
2022-10-22T09:24:26.663Z,30.83
2022-10-22T09:26:57.633Z,29.00
2022-10-22T09:29:32.569Z,30.05
2022-10-22T09:31:59.411Z,32.20
2022-10-22T09:34:25.920Z,27.50
2022-10-22T09:37:01.487Z,25.13
2022-10-22T09:39:38.793Z,24.15
2022-10-22T09:42:07.022Z,25.20
2022-10-22T09:44:37.282Z,26.90
2022-10-22T09:47:32.654Z,26.42
2022-10-22T09:50:09.643Z,24.52
2022-10-22T09:52:36.323Z,26.05
2022-10-22T09:55:06.931Z,23.73
2022-10-22T09:57:37.892Z,21.42
2022-10-22T10:00:10.107Z,18.98
2022-10-22T10:02:40.488Z,18.17
2022-10-22T10:05:08.320Z,19.02
2022-10-22T10:07:36.115Z,19.42
2022-10-22T10:10:16.038Z,19.90
2022-10-22T10:12:56.608Z,20.25
2022-10-22T10:15:44.003Z,19.15
2022-10-22T10:18:38.991Z,18.50
2022-10-22T10:24:18.758Z,18.10
2022-10-22T10:26:54.528Z,19.08
2022-10-22T10:29:39.214Z,20.00
2022-10-22T10:35:20.567Z,21.90
2022-10-22T10:37:54.141Z,18.40
2022-10-22T10:40:26.680Z,17.77
2022-10-22T10:43:07.298Z,17.15
2022-10-22T10:45:36.332Z,18.15
2022-10-22T10:48:25.788Z,17.38
2022-10-22T10:51:04.891Z,17.33
2022-10-22T10:53:43.113Z,19.08
2022-10-22T10:56:39.200Z,18.58
2022-10-22T10:59:14.453Z,19.77
2022-10-22T11:01:52.483Z,18.80
2022-10-22T11:04:30.589Z,20.35
2022-10-22T11:07:11.155Z,20.60
2022-10-22T11:09:50.665Z,19.30
2022-10-22T11:12:34.129Z,20.10
2022-10-22T11:15:27.974Z,18.42
2022-10-22T11:18:00.713Z,20.90
2022-10-22T11:21:11.401Z,19.33
2022-10-22T11:23:56.519Z,18.45
2022-10-22T11:26:25.934Z,19.98
2022-10-22T11:28:53.759Z,20.90
2022-10-22T11:31:23.032Z,18.77
2022-10-22T11:34:05.012Z,19.30
2022-10-22T11:36:38.491Z,16.52
2022-10-22T11:39:05.048Z,18.40
2022-10-22T11:41:36.222Z,19.63
2022-10-22T11:44:22.553Z,16.35
2022-10-22T11:46:58.534Z,18.15
2022-10-22T11:49:43.160Z,18.83
2022-10-22T11:52:35.523Z,19.08
2022-10-22T11:55:03.719Z,18.35
2022-10-22T11:57:38.454Z,19.98
2022-10-22T12:00:41.304Z,18.08
2022-10-22T12:03:18.444Z,21.75
2022-10-22T12:05:46.672Z,20.70
2022-10-22T12:08:20.737Z,19.35
2022-10-22T12:11:19.422Z,20.33
2022-10-22T12:14:10.740Z,20.80
2022-10-22T12:16:58.083Z,21.27
2022-10-22T12:19:27.537Z,22.67
2022-10-22T12:21:57.765Z,22.00
2022-10-22T12:24:26.080Z,21.30
2022-10-22T12:26:52.787Z,21.08
2022-10-22T12:29:23.583Z,19.40
2022-10-22T12:31:50.161Z,22.00
2022-10-22T12:34:24.013Z,16.50
2022-10-22T12:36:53.602Z,15.00
2022-10-22T12:39:25.022Z,13.75
2022-10-22T12:41:53.551Z,12.30
2022-10-22T12:44:19.988Z,11.95
2022-10-22T12:46:51.780Z,12.65
2022-10-22T12:49:23.497Z,11.30
2022-10-22T12:51:50.120Z,10.77
2022-10-22T12:54:25.839Z,13.02
2022-10-22T12:56:53.480Z,12.82
2022-10-22T12:59:30.606Z,12.60
2022-10-22T13:01:57.144Z,13.15
2022-10-22T13:04:26.768Z,13.20
2022-10-22T13:07:16.947Z,12.38
2022-10-22T13:10:01.170Z,10.45
2022-10-22T13:12:36.011Z,10.88
2022-10-22T13:15:33.767Z,10.95
2022-10-22T13:18:22.898Z,11.60
2022-10-22T13:21:03.046Z,11.13
2022-10-22T13:23:32.234Z,11.65
2022-10-22T13:26:19.011Z,10.80
2022-10-22T13:28:54.610Z,12.15
2022-10-22T13:31:27.182Z,12.25
2022-10-22T13:33:58.149Z,14.85
2022-10-22T13:36:25.087Z,13.85
2022-10-22T13:38:51.905Z,12.07
2022-10-22T13:41:27.555Z,12.68
2022-10-22T13:43:55.459Z,13.20
2022-10-22T13:46:23.646Z,11.23
2022-10-22T13:48:52.801Z,12.20
2022-10-22T13:51:24.804Z,13.88
2022-10-22T13:53:53.589Z,14.45
2022-10-22T13:56:21.711Z,14.25
2022-10-22T13:58:48.738Z,13.20
2022-10-22T14:01:26.227Z,11.18
2022-10-22T14:03:57.944Z,14.95
2022-10-22T14:06:28.749Z,13.35
2022-10-22T14:09:00.040Z,12.10
2022-10-22T14:11:27.290Z,13.52
2022-10-22T14:13:54.422Z,11.90
2022-10-22T14:16:24.048Z,15.27
2022-10-22T14:18:51.444Z,18.15
2022-10-22T14:21:19.023Z,14.20
2022-10-22T14:23:47.839Z,15.48
2022-10-22T14:26:30.178Z,16.35
2022-10-22T14:29:09.432Z,13.25
2022-10-22T14:31:38.134Z,15.85
2022-10-22T14:34:04.626Z,15.35
2022-10-22T14:36:31.116Z,18.83
2022-10-22T14:38:57.689Z,18.05
2022-10-22T14:41:27.978Z,14.43
2022-10-22T14:43:59.640Z,12.88
2022-10-22T14:46:26.268Z,12.63
2022-10-22T14:48:52.850Z,11.60
2022-10-22T14:51:21.326Z,13.00
2022-10-22T14:53:48.161Z,11.77
2022-10-22T14:56:17.766Z,10.30
2022-10-22T14:58:45.519Z,11.82
2022-10-22T15:01:12.116Z,12.68
2022-10-22T15:03:38.885Z,10.68
2022-10-22T15:06:05.916Z,12.73
2022-10-22T15:08:33.116Z,11.60
2022-10-22T15:11:00.636Z,12.98
2022-10-22T15:13:29.159Z,11.85
2022-10-22T15:15:57.012Z,12.63
2022-10-22T15:18:23.979Z,12.60
2022-10-22T15:21:02.889Z,12.60
2022-10-22T15:23:29.527Z,12.15
2022-10-22T15:25:56.559Z,12.02
2022-10-22T15:28:24.149Z,12.68
2022-10-22T15:30:56.738Z,14.00
2022-10-22T15:33:23.954Z,15.50
2022-10-22T15:35:50.693Z,17.40
2022-10-22T15:38:17.855Z,19.80
2022-10-22T15:40:44.676Z,22.15
2022-10-22T15:43:11.983Z,23.13
2022-10-22T15:45:39.492Z,23.85
2022-10-22T15:48:06.173Z,25.13
2022-10-22T15:50:36.971Z,23.45
2022-10-22T15:53:03.620Z,24.85
2022-10-22T15:55:30.499Z,23.45
2022-10-22T15:57:59.225Z,21.17
2022-10-22T16:00:28.209Z,20.92
2022-10-22T16:02:55.083Z,20.23
2022-10-22T16:05:21.457Z,19.48
2022-10-22T16:07:47.867Z,18.30
2022-10-22T16:10:14.256Z,18.42
2022-10-22T16:12:41.497Z,18.45
2022-10-22T16:15:09.140Z,17.75
2022-10-22T16:17:35.923Z,17.65
2022-10-22T16:20:02.352Z,17.98
2022-10-22T16:22:34.924Z,20.88
2022-10-22T16:25:01.614Z,21.00
2022-10-22T16:27:28.019Z,20.70
2022-10-22T16:29:57.478Z,23.75
2022-10-22T16:32:23.832Z,23.73
2022-10-22T16:34:50.130Z,24.23
2022-10-22T16:37:16.451Z,21.77
2022-10-22T16:39:42.746Z,23.70
2022-10-22T16:42:09.053Z,23.65
2022-10-22T16:44:35.365Z,23.95
2022-10-22T16:47:01.713Z,23.20
2022-10-22T16:49:28.034Z,25.30
2022-10-22T16:51:54.353Z,26.38
2022-10-22T16:54:21.686Z,27.60
2022-10-22T16:56:48.061Z,29.63
2022-10-22T16:59:14.624Z,28.30
2022-10-22T17:01:41.607Z,28.02
2022-10-22T17:04:08.299Z,30.50
2022-10-22T17:06:34.657Z,30.60
2022-10-22T17:09:01.099Z,33.47
2022-10-22T17:11:30.144Z,32.53
2022-10-22T17:13:56.789Z,30.55
2022-10-22T17:16:24.920Z,30.35
2022-10-22T17:18:53.716Z,29.42
2022-10-22T17:21:21.125Z,32.35
2022-10-22T17:23:48.078Z,29.48
2022-10-22T17:26:20.811Z,28.10
2022-10-22T17:28:47.919Z,28.48
2022-10-22T17:31:20.438Z,29.30
2022-10-22T17:33:48.618Z,28.77
2022-10-22T17:36:16.435Z,33.70
2022-10-22T17:38:43.385Z,31.98
2022-10-22T17:41:17.653Z,31.75
2022-10-22T17:46:24.451Z,32.47
2022-10-22T17:48:52.480Z,32.28
2022-10-22T17:51:19.711Z,34.15
2022-10-22T17:53:46.494Z,33.72
2022-10-22T17:56:15.116Z,36.63
2022-10-22T17:58:41.819Z,34.17
2022-10-22T18:01:25.966Z,30.70
2022-10-22T18:03:53.993Z,25.63
2022-10-22T18:06:21.155Z,26.95
2022-10-22T18:08:47.585Z,25.63
2022-10-22T18:11:17.359Z,27.98
2022-10-22T18:13:43.736Z,25.98
2022-10-22T18:16:10.306Z,24.20
2022-10-22T18:18:36.666Z,27.42
2022-10-22T18:21:03.749Z,27.52
2022-10-22T18:23:30.050Z,29.95
2022-10-22T18:25:56.372Z,27.65
2022-10-22T18:28:22.713Z,26.50
2022-10-22T18:30:49.085Z,25.60
2022-10-22T18:33:18.208Z,26.42
2022-10-22T18:35:46.064Z,27.52
2022-10-22T18:38:12.486Z,29.00
2022-10-22T18:40:45.940Z,27.55
2022-10-22T18:43:12.638Z,26.30
2022-10-22T18:45:46.775Z,24.83
2022-10-22T18:48:15.769Z,25.67
2022-10-22T18:50:42.835Z,23.45
2022-10-22T18:53:10.142Z,26.75
2022-10-22T18:55:39.594Z,28.70
2022-10-22T18:58:06.402Z,27.88
2022-10-22T19:00:35.112Z,27.20
2022-10-22T19:03:03.069Z,28.95
2022-10-22T19:05:29.361Z,27.15
2022-10-22T19:07:55.674Z,32.00
2022-10-22T19:10:21.977Z,31.05
2022-10-22T19:12:48.311Z,29.27
2022-10-22T19:15:14.683Z,32.45
2022-10-22T19:17:41.280Z,34.00
2022-10-22T19:20:08.413Z,35.45
2022-10-22T19:22:34.731Z,33.95
2022-10-22T19:25:01.039Z,34.17
2022-10-22T19:27:27.364Z,35.10
2022-10-22T19:29:53.665Z,36.45
2022-10-22T19:32:20.147Z,36.00
2022-10-22T19:34:47.072Z,34.33
2022-10-22T19:37:13.466Z,34.33
2022-10-22T19:39:39.803Z,33.53
2022-10-22T19:42:06.212Z,34.15
2022-10-22T19:44:32.563Z,35.00
2022-10-22T19:46:58.878Z,35.83
2022-10-22T19:49:25.343Z,36.90
2022-10-22T19:51:51.719Z,34.80
2022-10-22T19:54:19.505Z,34.80
2022-10-22T19:56:47.441Z,35.13
2022-10-22T19:59:14.847Z,36.20
2022-10-22T20:01:41.297Z,35.13
2022-10-22T20:04:07.705Z,38.60
2022-10-22T20:06:34.062Z,36.92
2022-10-22T20:09:00.416Z,38.60
2022-10-22T20:11:29.429Z,38.33
2022-10-22T20:13:57.079Z,38.80
2022-10-22T20:16:28.282Z,36.13
2022-10-22T20:18:54.614Z,37.55
2022-10-22T20:21:21.841Z,40.25
2022-10-22T20:23:52.607Z,38.40
2022-10-22T20:26:20.159Z,38.60
2022-10-22T20:28:46.659Z,39.03
2022-10-22T20:31:15.882Z,39.58
2022-10-22T20:33:42.772Z,41.67
2022-10-22T20:36:20.775Z,37.25
2022-10-22T20:38:48.153Z,35.33
2022-10-22T20:41:17.971Z,39.28
2022-10-22T20:43:48.298Z,37.33
2022-10-22T20:46:19.207Z,34.25
2022-10-22T20:48:46.110Z,36.47
2022-10-22T20:51:13.144Z,34.95
2022-10-22T20:53:39.451Z,35.95
2022-10-22T20:56:06.816Z,34.85
2022-10-22T20:58:33.377Z,35.85
2022-10-22T21:01:05.191Z,34.53
2022-10-22T21:03:31.501Z,33.90
2022-10-22T21:05:57.809Z,34.38
2022-10-22T21:08:24.109Z,34.35
2022-10-22T21:10:50.391Z,34.25
2022-10-22T21:13:17.079Z,36.80
2022-10-22T21:15:43.412Z,36.60
2022-10-22T21:18:09.712Z,36.97
2022-10-22T21:20:38.312Z,36.55
2022-10-22T21:23:04.685Z,37.53
2022-10-22T21:25:31.286Z,36.70
2022-10-22T21:27:57.792Z,35.72
2022-10-22T21:30:24.177Z,36.47
2022-10-22T21:32:51.647Z,38.30
2022-10-22T21:35:18.124Z,35.50
2022-10-22T21:37:44.617Z,37.13
2022-10-22T21:40:11.653Z,38.17
2022-10-22T21:42:37.968Z,36.90
2022-10-22T21:45:07.929Z,34.55
2022-10-22T21:47:36.706Z,35.55
2022-10-22T21:50:03.291Z,37.78
2022-10-22T21:52:29.619Z,39.30
2022-10-22T21:54:55.954Z,37.15
2022-10-22T21:57:22.300Z,38.00
2022-10-22T21:59:48.642Z,37.03
2022-10-22T22:02:14.998Z,36.88
2022-10-22T22:04:41.349Z,35.92
2022-10-22T22:07:07.729Z,38.97
2022-10-22T22:09:34.109Z,38.70
2022-10-22T22:12:00.461Z,35.58
2022-10-22T22:14:26.751Z,35.67
2022-10-22T22:16:53.052Z,37.25
2022-10-22T22:19:19.435Z,35.78
2022-10-22T22:21:45.769Z,37.05
2022-10-22T22:24:13.144Z,39.08
2022-10-22T22:26:40.289Z,37.50
2022-10-22T22:29:06.637Z,37.20
2022-10-22T22:31:35.211Z,35.95
2022-10-22T22:34:07.002Z,35.70
2022-10-22T22:36:39.605Z,38.72
2022-10-22T22:39:08.253Z,36.05
2022-10-22T22:41:35.034Z,37.90
2022-10-22T22:44:01.685Z,36.30
2022-10-22T22:46:28.628Z,38.42
2022-10-22T22:48:54.979Z,38.20
2022-10-22T22:51:21.512Z,37.63
2022-10-22T22:53:48.055Z,39.63
2022-10-22T22:56:22.905Z,37.72
2022-10-22T22:58:49.671Z,36.58
2022-10-22T23:01:18.933Z,35.40
2022-10-22T23:03:48.761Z,34.78
2022-10-22T23:06:15.799Z,35.13
2022-10-22T23:08:42.228Z,36.10
2022-10-22T23:11:12.465Z,35.47
2022-10-22T23:13:40.293Z,36.80
2022-10-22T23:16:08.329Z,32.40
2022-10-22T23:18:35.429Z,36.60
2022-10-22T23:21:06.473Z,37.10
2022-10-22T23:23:34.163Z,36.17
2022-10-22T23:26:01.404Z,33.45
2022-10-22T23:28:28.158Z,36.65
2022-10-22T23:30:54.552Z,35.10
2022-10-22T23:33:20.995Z,35.70
2022-10-22T23:35:47.661Z,33.50
2022-10-22T23:38:13.988Z,34.13
2022-10-22T23:40:40.693Z,35.95
2022-10-22T23:43:07.059Z,34.30
2022-10-22T23:45:34.502Z,35.50
2022-10-22T23:48:00.937Z,34.25
2022-10-22T23:50:27.327Z,33.95
2022-10-22T23:52:53.656Z,36.97
2022-10-22T23:55:20.030Z,37.85
2022-10-22T23:57:46.478Z,36.92
